Time;durP1;ratioP1;P1;durP2;ratioP2;P2;SDS_P1;SDS_P2;PMS_P1;PMS_P2;Temp;Humidity;BMP_temperature;BMP_pressure;BME280_temperature;BME280_humidity;BME280_pressure;Samples;Min_cycle;Max_cycle;Signal;HPM_P1;HPM_P2
2023/09/17 00:00:06;;;;;;;9.55;5.78;;;20.30;76.90;;;;;;4976664;28;20022;-84
2023/09/17 00:02:32;;;;;;;11.93;7.07;;;20.30;76.70;;;;;;4959201;28;20018;-86
2023/09/17 00:04:57;;;;;;;9.25;6.47;;;20.20;76.40;;;;;;4976475;28;20034;-87
2023/09/17 00:07:23;;;;;;;8.80;6.15;;;20.20;76.00;;;;;;4958921;28;20075;-85
2023/09/17 00:09:49;;;;;;;9.23;6.32;;;20.30;76.00;;;;;;4958682;28;20059;-86
2023/09/17 00:12:15;;;;;;;11.15;6.03;;;20.20;75.80;;;;;;4976417;28;20039;-87
2023/09/17 00:14:41;;;;;;;10.52;5.97;;;20.30;75.70;;;;;;4959143;28;20105;-86
2023/09/17 00:17:06;;;;;;;7.65;5.00;;;20.20;75.60;;;;;;4976404;28;20035;-86
2023/09/17 00:19:32;;;;;;;7.45;5.05;;;20.20;75.60;;;;;;4976017;28;20066;-86
2023/09/17 00:21:58;;;;;;;7.57;5.15;;;20.10;75.90;;;;;;4959220;28;20018;-86
2023/09/17 00:24:24;;;;;;;8.30;5.88;;;20.10;76.00;;;;;;4976504;28;20051;-86
2023/09/17 00:26:50;;;;;;;8.55;5.60;;;20.10;76.30;;;;;;4976188;28;20125;-87
2023/09/17 00:29:16;;;;;;;8.40;5.97;;;20.10;76.30;;;;;;4976135;28;20512;-87
2023/09/17 00:31:42;;;;;;;8.13;5.57;;;20.10;76.20;;;;;;4959125;28;20034;-85
2023/09/17 00:34:07;;;;;;;8.80;5.53;;;20.10;76.20;;;;;;4958716;28;20115;-86
2023/09/17 00:36:33;;;;;;;9.68;5.60;;;20.00;76.20;;;;;;4975986;28;20085;-86
2023/09/17 00:38:58;;;;;;;9.05;5.40;;;20.00;76.30;;;;;;4958802;28;20030;-87
2023/09/17 00:41:24;;;;;;;7.43;5.07;;;20.00;76.20;;;;;;4975976;28;20030;-85
2023/09/17 00:43:49;;;;;;;8.57;4.80;;;20.00;76.20;;;;;;4958348;28;20023;-85
2023/09/17 00:46:15;;;;;;;7.35;4.80;;;19.90;76.20;;;;;;4975595;28;20039;-86
2023/09/17 00:48:41;;;;;;;8.55;4.82;;;19.90;76.30;;;;;;4976245;28;20133;-84
2023/09/17 00:51:07;;;;;;;6.65;4.07;;;19.90;76.20;;;;;;4958675;28;20070;-85
2023/09/17 00:53:33;;;;;;;6.50;4.15;;;20.00;76.20;;;;;;4976108;28;20022;-88
2023/09/17 00:55:59;;;;;;;7.20;4.65;;;19.80;75.90;;;;;;4958074;28;20027;-87
2023/09/17 00:58:28;;;;;;;6.35;4.28;;;19.90;76.00;;;;;;4958633;28;20033;-87
2023/09/17 01:00:55;;;;;;;6.47;4.25;;;19.80;75.80;;;;;;4975438;28;20473;-86
2023/09/17 01:03:21;;;;;;;6.55;4.22;;;19.80;75.80;;;;;;4975772;28;20046;-86
2023/09/17 01:05:48;;;;;;;6.15;3.97;;;19.80;76.40;;;;;;4975947;28;20039;-85
2023/09/17 01:08:15;;;;;;;6.78;4.55;;;19.80;75.80;;;;;;4975417;28;20026;-85
2023/09/17 01:10:41;;;;;;;7.30;5.03;;;19.80;75.90;;;;;;4975727;28;20038;-87
2023/09/17 01:13:08;;;;;;;8.55;5.03;;;19.70;75.80;;;;;;4975431;28;20022;-87
2023/09/17 01:15:34;;;;;;;8.55;5.32;;;19.80;76.00;;;;;;4958430;28;20035;-87
2023/09/17 01:18:05;;;;;;;7.18;5.22;;;19.70;76.00;;;;;;4975915;28;20346;-85
2023/09/17 01:20:37;;;;;;;8.73;6.07;;;19.70;76.00;;;;;;4957427;28;20428;-86
2023/09/17 01:23:14;;;;;;;8.32;5.78;;;19.60;76.00;;;;;;4974713;28;20030;-85
2023/09/17 01:25:57;;;;;;;9.23;6.78;;;19.60;76.10;;;;;;4975319;28;20035;-85
2023/09/17 01:28:23;;;;;;;11.13;6.70;;;19.50;76.30;;;;;;4975397;28;20103;-85
2023/09/17 01:30:49;;;;;;;9.05;6.25;;;19.50;76.50;;;;;;4957902;28;20165;-85
2023/09/17 01:33:14;;;;;;;8.05;5.60;;;19.50;76.60;;;;;;4975306;28;20354;-83
2023/09/17 01:36:03;;;;;;;9.40;7.10;;;19.50;76.80;;;;;;4975108;28;20339;-84
2023/09/17 01:38:38;;;;;;;9.23;6.57;;;19.40;77.00;;;;;;4957050;28;20039;-83
2023/09/17 01:41:06;;;;;;;8.93;6.25;;;19.50;77.20;;;;;;4974993;28;20027;-86
2023/09/17 01:43:33;;;;;;;9.98;7.63;;;19.30;77.20;;;;;;4974802;28;20027;-84
2023/09/17 01:46:00;;;;;;;9.75;6.38;;;19.30;77.30;;;;;;4974707;28;20481;-84
2023/09/17 01:48:27;;;;;;;8.75;6.25;;;19.30;77.30;;;;;;4974672;28;20441;-83
2023/09/17 01:50:54;;;;;;;9.63;7.47;;;19.20;77.30;;;;;;4989522;28;20030;-83
2023/09/17 01:53:20;;;;;;;12.55;7.15;;;19.20;77.50;;;;;;4974165;28;20027;-84
2023/09/17 01:55:50;;;;;;;9.60;6.70;;;19.20;77.50;;;;;;4974642;28;20077;-83
2023/09/17 01:58:17;;;;;;;11.30;6.50;;;19.10;77.40;;;;;;4974846;28;20047;-85
2023/09/17 02:00:43;;;;;;;9.63;6.32;;;19.10;77.50;;;;;;4958139;28;20026;-83
2023/09/17 02:03:08;;;;;;;9.68;6.28;;;19.10;77.50;;;;;;4956983;28;20667;-82
2023/09/17 02:05:34;;;;;;;10.52;6.20;;;19.20;77.60;;;;;;4974685;28;20073;-85
2023/09/17 02:08:00;;;;;;;9.93;6.70;;;19.00;77.60;;;;;;4974716;28;20023;-83
2023/09/17 02:10:25;;;;;;;9.98;6.75;;;19.00;78.00;;;;;;4974714;28;20042;-83
2023/09/17 02:12:51;;;;;;;9.15;6.18;;;19.00;77.90;;;;;;4956965;28;20026;-84
2023/09/17 02:15:17;;;;;;;9.80;6.82;;;18.90;78.00;;;;;;4973785;28;20406;-84
2023/09/17 02:17:42;;;;;;;12.02;6.55;;;18.90;77.90;;;;;;4974648;28;20022;-84
2023/09/17 02:20:11;;;;;;;7.93;5.72;;;18.90;78.10;;;;;;4974436;28;20117;-82
2023/09/17 02:22:37;;;;;;;10.75;6.18;;;18.90;78.10;;;;;;4973537;28;20388;-82
2023/09/17 02:25:04;;;;;;;9.15;6.55;;;18.90;78.10;;;;;;4956989;28;20137;-82
2023/09/17 02:27:29;;;;;;;8.52;5.68;;;18.80;78.10;;;;;;4956999;28;20015;-84
2023/09/17 02:29:55;;;;;;;9.85;6.72;;;18.80;78.30;;;;;;4974386;28;20026;-83
2023/09/17 02:32:20;;;;;;;9.25;6.63;;;18.80;78.40;;;;;;4974928;28;20034;-83
2023/09/17 02:34:46;;;;;;;11.10;7.05;;;18.90;78.50;;;;;;4992611;28;20065;-83
2023/09/17 02:37:12;;;;;;;9.90;6.75;;;18.90;78.60;;;;;;4960752;28;20058;-84
2023/09/17 02:39:37;;;;;;;9.32;6.22;;;18.80;78.60;;;;;;4978089;28;20453;-84
2023/09/17 02:42:03;;;;;;;10.73;7.00;;;18.80;78.60;;;;;;4977523;28;20039;-83
2023/09/17 02:44:29;;;;;;;10.68;6.90;;;18.70;78.80;;;;;;4977743;28;20034;-83
2023/09/17 02:46:55;;;;;;;10.52;6.95;;;18.80;79.00;;;;;;4960082;28;20436;-84
2023/09/17 02:49:21;;;;;;;9.38;7.00;;;18.80;79.10;;;;;;4977733;28;20027;-84
2023/09/17 02:51:48;;;;;;;8.82;6.30;;;18.80;79.10;;;;;;4977786;28;20078;-85
2023/09/17 02:54:14;;;;;;;9.15;6.10;;;18.70;79.30;;;;;;4978155;28;20104;-84
2023/09/17 02:56:40;;;;;;;9.18;6.97;;;18.70;79.40;;;;;;4977724;28;20055;-84
2023/09/17 02:59:05;;;;;;;13.20;7.90;;;18.60;80.50;;;;;;4977434;28;20503;-83
2023/09/17 03:01:31;;;;;;;11.30;7.95;;;18.70;80.30;;;;;;4960571;28;20093;-84
2023/09/17 03:03:57;;;;;;;9.75;6.95;;;18.60;80.70;;;;;;4978054;28;20034;-82
2023/09/17 03:06:23;;;;;;;10.18;6.65;;;18.50;80.90;;;;;;4977764;28;20039;-85
2023/09/17 03:08:49;;;;;;;10.10;6.88;;;18.40;80.90;;;;;;4961431;28;20027;-86
2023/09/17 03:11:17;;;;;;;11.75;7.05;;;18.40;81.10;;;;;;4964372;28;20023;-87
2023/09/17 03:13:44;;;;;;;12.80;7.28;;;18.40;81.30;;;;;;4985918;28;20027;-84
2023/09/17 03:16:12;;;;;;;8.45;6.38;;;18.30;81.50;;;;;;4986175;28;20026;-86
2023/09/17 03:18:39;;;;;;;9.88;7.00;;;18.30;81.70;;;;;;4991101;28;20034;-86
2023/09/17 03:21:06;;;;;;;10.57;6.95;;;18.30;82.10;;;;;;5002383;28;20030;-86
2023/09/17 03:23:32;;;;;;;9.80;7.20;;;18.30;82.40;;;;;;5003556;28;20107;-86
2023/09/17 03:25:57;;;;;;;12.05;7.40;;;18.20;82.50;;;;;;5001895;28;20066;-91
2023/09/17 03:28:23;;;;;;;13.30;8.32;;;18.20;83.40;;;;;;4982541;28;20160;-90
2023/09/17 03:30:48;;;;;;;11.18;6.80;;;18.20;83.80;;;;;;4981623;28;20054;-88
2023/09/17 03:33:14;;;;;;;12.15;8.05;;;18.10;83.70;;;;;;4998357;28;20030;-89
2023/09/17 03:35:39;;;;;;;12.88;8.20;;;18.10;84.00;;;;;;4998370;28;20031;-89
2023/09/17 03:38:05;;;;;;;11.15;7.55;;;18.00;84.50;;;;;;4998779;28;20105;-88
2023/09/17 03:40:31;;;;;;;12.18;6.97;;;18.00;84.40;;;;;;4997752;28;20030;-90
2023/09/17 03:42:57;;;;;;;11.25;7.07;;;17.90;84.20;;;;;;4997821;28;20081;-90
2023/09/17 03:45:22;;;;;;;12.15;7.35;;;17.80;84.60;;;;;;4996349;28;20034;-87
2023/09/17 03:47:48;;;;;;;10.98;6.35;;;17.80;84.70;;;;;;4997205;28;20026;-86
2023/09/17 03:50:15;;;;;;;11.40;6.88;;;17.80;84.90;;;;;;4996849;28;20057;-87
2023/09/17 03:52:46;;;;;;;10.73;7.70;;;17.80;85.10;;;;;;4996836;28;20026;-86
2023/09/17 03:55:13;;;;;;;9.73;7.53;;;17.80;85.40;;;;;;4996889;28;20035;-87
2023/09/17 03:57:39;;;;;;;9.00;6.65;;;17.80;85.50;;;;;;4996039;28;20085;-85
2023/09/17 04:00:07;;;;;;;10.82;7.95;;;17.80;85.50;;;;;;4997511;28;20037;-89
2023/09/17 04:02:43;;;;;;;9.98;7.13;;;17.80;85.70;;;;;;4980874;28;20058;-91
2023/09/17 04:05:11;;;;;;;13.52;7.85;;;17.70;85.90;;;;;;4997932;28;20030;-88
2023/09/17 04:07:37;;;;;;;10.30;7.45;;;17.80;86.30;;;;;;4996988;28;20033;-88
2023/09/17 04:10:06;;;;;;;10.32;7.15;;;17.80;86.30;;;;;;4997547;28;20257;-87
2023/09/17 04:12:36;;;;;;;11.35;7.63;;;17.70;86.60;;;;;;4979740;28;20022;-89
2023/09/17 04:15:16;;;;;;;11.35;8.18;;;17.60;86.90;;;;;;4979708;28;20365;-86
2023/09/17 04:17:42;;;;;;;11.82;8.63;;;17.60;87.10;;;;;;4996291;28;20027;-85
2023/09/17 04:20:13;;;;;;;11.02;8.45;;;17.60;87.40;;;;;;4978445;28;20117;-85
2023/09/17 04:22:43;;;;;;;10.85;8.23;;;17.60;87.60;;;;;;4978792;28;20121;-88
2023/09/17 04:25:11;;;;;;;12.90;8.77;;;17.60;87.80;;;;;;4995711;28;20669;-87
2023/09/17 04:27:40;;;;;;;11.77;8.57;;;17.60;88.10;;;;;;4996082;28;20026;-87
2023/09/17 04:30:07;;;;;;;13.68;8.57;;;17.60;88.30;;;;;;4996232;28;20066;-87
2023/09/17 04:32:37;;;;;;;14.98;9.07;;;17.60;88.60;;;;;;4996367;28;20133;-88
2023/09/17 04:35:10;;;;;;;14.23;9.02;;;17.60;88.70;;;;;;4978169;28;20030;-87
2023/09/17 04:37:39;;;;;;;12.82;9.27;;;17.60;89.10;;;;;;4978143;28;20026;-85
2023/09/17 04:40:08;;;;;;;16.95;9.32;;;17.60;89.40;;;;;;4995333;28;20026;-86
2023/09/17 04:42:44;;;;;;;13.45;9.85;;;17.50;89.40;;;;;;4995286;28;20022;-85
2023/09/17 04:45:11;;;;;;;13.48;9.07;;;17.60;89.80;;;;;;4995234;28;20121;-84
2023/09/17 04:47:37;;;;;;;12.48;8.52;;;17.50;90.00;;;;;;4995149;28;20460;-86
2023/09/17 04:50:08;;;;;;;12.55;8.77;;;17.60;90.00;;;;;;4995194;28;20089;-84
2023/09/17 04:52:34;;;;;;;11.55;8.60;;;17.50;90.20;;;;;;4994823;28;20551;-84
2023/09/17 04:54:59;;;;;;;13.73;9.77;;;17.60;90.40;;;;;;4994308;28;20471;-85
2023/09/17 04:57:25;;;;;;;12.25;8.95;;;17.50;90.60;;;;;;4995031;28;20027;-88
2023/09/17 04:59:50;;;;;;;13.50;9.90;;;17.60;90.60;;;;;;4977387;28;20110;-85
2023/09/17 05:02:16;;;;;;;11.93;8.73;;;17.50;90.60;;;;;;4994447;28;20431;-86
2023/09/17 05:04:42;;;;;;;12.00;9.05;;;17.50;90.70;;;;;;4994485;28;20985;-86
2023/09/17 05:07:08;;;;;;;12.55;8.73;;;17.50;90.90;;;;;;4994486;28;20443;-87
2023/09/17 05:09:34;;;;;;;12.73;9.23;;;17.70;91.00;;;;;;4987070;28;20038;-85
2023/09/17 05:11:59;;;;;;;11.32;8.65;;;17.60;91.10;;;;;;4973243;28;20033;-86
2023/09/17 05:14:26;;;;;;;11.80;7.93;;;17.50;91.20;;;;;;4976814;28;20066;-85
2023/09/17 05:16:51;;;;;;;11.30;9.23;;;17.50;91.40;;;;;;4988415;28;20503;-87
2023/09/17 05:19:17;;;;;;;12.85;9.90;;;17.70;91.60;;;;;;4976159;28;20336;-86
2023/09/17 05:21:42;;;;;;;11.95;8.60;;;17.60;91.70;;;;;;4994354;28;20109;-86
2023/09/17 05:24:08;;;;;;;12.15;8.95;;;17.60;91.80;;;;;;4993610;28;20043;-84
2023/09/17 05:26:34;;;;;;;10.38;8.70;;;17.60;91.90;;;;;;4993953;28;20050;-85
2023/09/17 05:28:59;;;;;;;15.45;9.98;;;17.60;91.90;;;;;;4976268;28;20030;-84
2023/09/17 05:31:25;;;;;;;13.98;9.35;;;17.60;92.10;;;;;;4994401;28;20105;-84
2023/09/17 05:33:51;;;;;;;12.00;9.40;;;17.70;92.20;;;;;;4994316;28;20089;-86
2023/09/17 05:36:17;;;;;;;14.43;10.00;;;17.60;92.30;;;;;;4977020;28;20041;-86
2023/09/17 05:38:42;;;;;;;14.02;10.75;;;17.70;92.50;;;;;;4993828;28;20026;-84
2023/09/17 05:41:10;;;;;;;14.35;10.40;;;17.60;92.70;;;;;;4993721;28;20030;-82
2023/09/17 05:43:36;;;;;;;12.15;9.40;;;17.60;92.80;;;;;;4992770;28;20022;-84
2023/09/17 05:46:01;;;;;;;13.98;10.10;;;17.70;92.80;;;;;;4975870;28;20037;-83
2023/09/17 05:48:28;;;;;;;12.25;9.18;;;17.70;93.10;;;;;;4975438;28;20029;-83
2023/09/17 05:50:53;;;;;;;14.05;10.10;;;17.70;93.10;;;;;;4976442;28;20392;-85
2023/09/17 05:53:19;;;;;;;13.93;9.57;;;17.70;93.40;;;;;;4993279;28;20026;-84
2023/09/17 05:55:45;;;;;;;13.90;10.45;;;17.70;93.40;;;;;;4993550;28;20034;-85
2023/09/17 05:58:10;;;;;;;12.73;9.88;;;17.60;93.50;;;;;;4994242;28;20026;-84
2023/09/17 06:00:36;;;;;;;12.15;9.13;;;17.70;93.70;;;;;;4993315;28;20447;-87
2023/09/17 06:03:03;;;;;;;11.77;8.82;;;17.60;93.80;;;;;;4993375;28;20480;-82
2023/09/17 06:05:28;;;;;;;13.45;9.90;;;17.60;93.80;;;;;;4992773;28;20070;-84
2023/09/17 06:07:54;;;;;;;12.70;9.52;;;17.60;94.00;;;;;;4976243;28;20064;-85
2023/09/17 06:10:21;;;;;;;13.73;10.00;;;17.60;94.20;;;;;;4997729;28;20054;-85
2023/09/17 06:12:46;;;;;;;12.15;8.23;;;17.60;94.30;;;;;;4997182;28;20018;-85
2023/09/17 06:15:12;;;;;;;13.85;9.13;;;17.50;94.30;;;;;;4982859;28;20070;-86
2023/09/17 06:17:38;;;;;;;11.80;9.00;;;17.50;94.40;;;;;;4978433;28;20385;-84
2023/09/17 06:20:04;;;;;;;10.80;7.07;;;17.70;94.80;;;;;;4960966;28;20031;-85
2023/09/17 06:22:30;;;;;;;10.70;7.97;;;17.60;94.60;;;;;;4978956;28;20027;-85
2023/09/17 06:24:55;;;;;;;10.63;7.63;;;17.60;94.70;;;;;;4978559;28;20058;-85
2023/09/17 06:27:21;;;;;;;12.02;8.05;;;17.60;94.80;;;;;;4961046;28;20121;-85
2023/09/17 06:29:46;;;;;;;11.15;7.72;;;17.60;94.80;;;;;;4978298;28;20063;-84
2023/09/17 06:32:13;;;;;;;11.90;7.32;;;17.60;94.90;;;;;;4978334;28;20374;-85
2023/09/17 06:34:40;;;;;;;11.30;8.23;;;17.60;95.10;;;;;;4978312;28;20113;-85
2023/09/17 06:37:05;;;;;;;10.88;7.53;;;17.60;95.10;;;;;;4978299;28;20026;-85
2023/09/17 06:39:31;;;;;;;9.77;6.82;;;17.70;95.20;;;;;;4977722;28;20484;-84
2023/09/17 06:41:56;;;;;;;10.60;7.70;;;17.70;95.30;;;;;;4978588;28;20109;-84
2023/09/17 06:44:23;;;;;;;10.40;7.03;;;17.70;95.30;;;;;;4961379;28;20441;-85
2023/09/17 06:46:49;;;;;;;10.32;7.40;;;17.70;95.30;;;;;;4993485;28;20121;-85
2023/09/17 06:49:15;;;;;;;10.10;7.15;;;17.70;95.30;;;;;;4996100;28;20452;-84
2023/09/17 06:51:41;;;;;;;10.05;6.57;;;17.70;95.40;;;;;;4996733;28;20491;-85
2023/09/17 06:54:07;;;;;;;11.02;7.80;;;17.70;95.40;;;;;;4995084;28;20023;-85
2023/09/17 06:56:32;;;;;;;11.45;7.80;;;17.70;95.50;;;;;;4996092;28;20396;-83
2023/09/17 06:58:58;;;;;;;11.45;7.13;;;17.70;95.50;;;;;;4977030;28;20022;-84
2023/09/17 07:01:24;;;;;;;9.43;7.10;;;17.80;95.60;;;;;;4995619;28;20582;-84
2023/09/17 07:03:49;;;;;;;15.45;6.82;;;17.70;95.60;;;;;;4978804;28;20544;-85
2023/09/17 07:06:16;;;;;;;10.30;7.28;;;17.80;95.70;;;;;;4979354;28;20357;-84
2023/09/17 07:08:41;;;;;;;9.25;6.45;;;17.70;95.60;;;;;;4997173;28;20057;-85
2023/09/17 07:11:07;;;;;;;10.98;7.35;;;17.70;95.70;;;;;;4989737;28;20117;-85
2023/09/17 07:13:33;;;;;;;10.00;7.18;;;17.80;95.80;;;;;;4997022;28;20041;-86
2023/09/17 07:15:58;;;;;;;10.73;7.15;;;17.80;95.80;;;;;;4978214;28;20484;-85
2023/09/17 07:18:26;;;;;;;10.30;6.18;;;17.80;95.80;;;;;;4996795;28;20050;-85
2023/09/17 07:20:51;;;;;;;12.07;7.05;;;17.90;95.80;;;;;;4979649;28;20029;-85
2023/09/17 07:23:17;;;;;;;10.48;7.32;;;17.90;95.80;;;;;;4995908;28;20046;-85
2023/09/17 07:25:45;;;;;;;9.00;6.40;;;17.90;95.70;;;;;;4996653;28;20034;-84
2023/09/17 07:28:11;;;;;;;11.07;6.22;;;18.00;95.70;;;;;;4995399;28;20090;-86
2023/09/17 07:30:37;;;;;;;9.75;6.05;;;17.90;95.60;;;;;;4994629;28;20030;-85
2023/09/17 07:33:04;;;;;;;9.10;6.07;;;18.00;95.60;;;;;;4995169;28;20101;-84
2023/09/17 07:35:33;;;;;;;8.75;6.00;;;17.90;95.50;;;;;;4980683;28;20109;-84
2023/09/17 07:37:59;;;;;;;10.20;6.03;;;18.00;95.50;;;;;;4983263;28;20022;-83
2023/09/17 07:40:25;;;;;;;9.20;5.80;;;17.90;95.40;;;;;;4995331;28;20493;-84
2023/09/17 07:42:51;;;;;;;8.40;5.70;;;18.00;95.40;;;;;;4987707;28;20030;-83
2023/09/17 07:45:17;;;;;;;10.30;6.65;;;17.90;95.40;;;;;;4995893;28;20048;-84
2023/09/17 07:47:42;;;;;;;9.40;5.68;;;17.90;95.40;;;;;;4977947;28;20555;-84
2023/09/17 07:50:09;;;;;;;9.80;6.10;;;18.00;95.40;;;;;;4994992;28;20101;-84
2023/09/17 07:52:35;;;;;;;11.65;5.53;;;18.00;95.40;;;;;;4995456;28;20015;-83
2023/09/17 07:55:01;;;;;;;10.07;5.70;;;17.90;95.40;;;;;;4995651;28;20550;-84
2023/09/17 07:57:27;;;;;;;9.30;6.45;;;18.00;95.40;;;;;;4995760;28;20035;-85
2023/09/17 07:59:53;;;;;;;8.85;5.80;;;17.90;95.30;;;;;;4995919;28;20031;-84
2023/09/17 08:02:18;;;;;;;9.80;6.40;;;18.00;95.30;;;;;;4995720;28;20341;-84
2023/09/17 08:04:44;;;;;;;8.20;6.35;;;18.10;95.30;;;;;;4995428;28;20037;-84
2023/09/17 08:07:11;;;;;;;9.30;6.03;;;18.00;95.20;;;;;;4995618;28;20045;-83
2023/09/17 08:09:38;;;;;;;11.38;5.97;;;18.00;95.20;;;;;;4995388;28;20076;-83
2023/09/17 08:12:04;;;;;;;8.27;5.85;;;18.10;95.20;;;;;;4977627;28;20034;-83
2023/09/17 08:14:34;;;;;;;8.98;6.43;;;18.00;95.10;;;;;;4995457;28;20033;-83
2023/09/17 08:17:00;;;;;;;9.88;5.63;;;18.10;95.20;;;;;;4995000;28;20026;-83
2023/09/17 08:19:25;;;;;;;10.38;6.95;;;18.20;95.10;;;;;;4977404;28;20085;-83
2023/09/17 08:21:51;;;;;;;9.70;6.80;;;18.20;95.10;;;;;;4977260;28;20089;-83
2023/09/17 08:24:20;;;;;;;10.43;6.55;;;18.10;95.10;;;;;;4994560;28;20046;-83
2023/09/17 08:26:46;;;;;;;9.50;6.63;;;18.20;95.20;;;;;;4995149;28;20046;-80
2023/09/17 08:29:12;;;;;;;8.48;6.15;;;18.20;95.20;;;;;;4993855;28;20106;-80
2023/09/17 08:31:38;;;;;;;10.00;6.35;;;18.20;95.20;;;;;;4991950;28;20030;-78
2023/09/17 08:34:03;;;;;;;8.45;6.22;;;18.30;95.20;;;;;;4993935;28;20038;-79
2023/09/17 08:36:29;;;;;;;8.57;5.75;;;18.30;95.10;;;;;;4993817;28;20106;-80
2023/09/17 08:38:55;;;;;;;9.98;7.07;;;18.40;95.10;;;;;;4976062;28;20030;-79
2023/09/17 08:41:24;;;;;;;10.27;6.97;;;18.40;95.10;;;;;;4993596;28;20142;-80
2023/09/17 08:43:53;;;;;;;10.68;8.05;;;18.50;95.10;;;;;;4993294;28;20029;-78
2023/09/17 08:46:22;;;;;;;13.73;8.60;;;18.50;95.00;;;;;;4993717;28;20038;-79
2023/09/17 08:48:49;;;;;;;11.82;8.52;;;18.50;95.00;;;;;;4991242;28;20023;-79
2023/09/17 08:51:18;;;;;;;12.73;7.25;;;18.60;94.90;;;;;;4993080;28;20393;-79
2023/09/17 08:54:08;;;;;;;13.95;8.27;;;18.60;94.90;;;;;;4993314;28;20053;-77
2023/09/17 08:56:37;;;;;;;11.35;7.75;;;18.60;94.90;;;;;;4993105;28;20026;-79
2023/09/17 08:59:24;;;;;;;14.73;9.15;;;18.60;94.90;;;;;;4993454;28;20037;-80
2023/09/17 09:01:51;;;;;;;12.45;7.70;;;18.60;95.00;;;;;;4975766;28;20449;-79
2023/09/17 09:04:18;;;;;;;12.13;8.25;;;18.60;94.90;;;;;;4993184;28;20023;-79
2023/09/17 09:06:45;;;;;;;12.77;8.65;;;18.70;94.80;;;;;;4993119;28;20382;-79
2023/09/17 09:09:11;;;;;;;11.98;9.25;;;18.70;94.80;;;;;;4991612;28;20026;-79
2023/09/17 09:11:37;;;;;;;14.48;9.57;;;18.70;94.80;;;;;;4992839;28;20026;-79
2023/09/17 09:14:04;;;;;;;14.25;9.07;;;18.70;94.80;;;;;;4992961;28;20504;-79
2023/09/17 09:16:33;;;;;;;14.63;10.35;;;18.70;94.80;;;;;;4975280;28;20077;-78
2023/09/17 09:18:59;;;;;;;12.45;9.35;;;18.80;94.90;;;;;;4992982;28;20120;-78
2023/09/17 09:21:28;;;;;;;11.75;9.27;;;18.80;94.80;;;;;;4992650;28;20018;-79
2023/09/17 09:23:57;;;;;;;16.80;10.30;;;18.80;94.80;;;;;;4975165;28;20054;-79
2023/09/17 09:26:36;;;;;;;12.02;9.35;;;18.70;94.90;;;;;;4975157;28;20065;-79
2023/09/17 09:29:03;;;;;;;13.10;9.30;;;18.90;95.00;;;;;;4992778;28;20026;-78
2023/09/17 09:31:30;;;;;;;16.15;9.63;;;18.90;95.00;;;;;;4992013;28;20074;-78
2023/09/17 09:33:59;;;;;;;13.43;9.93;;;18.90;95.00;;;;;;4992083;28;20439;-79
2023/09/17 09:36:27;;;;;;;14.57;10.90;;;19.00;95.00;;;;;;4992600;28;20034;-78
2023/09/17 09:38:54;;;;;;;13.55;10.23;;;19.00;95.00;;;;;;4973820;28;20378;-78
2023/09/17 09:41:21;;;;;;;14.98;11.57;;;19.10;95.10;;;;;;4991430;28;20041;-78
2023/09/17 09:43:47;;;;;;;13.80;10.63;;;19.10;95.20;;;;;;4990889;28;20065;-78
2023/09/17 09:46:14;;;;;;;13.68;10.93;;;19.20;95.20;;;;;;4991968;28;20435;-78
2023/09/17 09:48:41;;;;;;;15.30;11.27;;;19.20;95.30;;;;;;4997115;28;20026;-78
2023/09/17 09:51:07;;;;;;;14.65;11.40;;;19.30;95.30;;;;;;4992027;28;20022;-77
2023/09/17 09:53:32;;;;;;;14.23;10.82;;;19.40;95.30;;;;;;4992177;28;20031;-77
2023/09/17 09:55:58;;;;;;;15.50;10.60;;;19.50;95.20;;;;;;4991460;28;20033;-77
2023/09/17 09:58:24;;;;;;;15.65;11.85;;;19.50;95.10;;;;;;4991710;28;20019;-77
2023/09/17 10:00:50;;;;;;;15.43;11.32;;;19.60;95.20;;;;;;4991859;28;20022;-78
2023/09/17 10:03:19;;;;;;;15.07;10.55;;;19.60;95.20;;;;;;4992249;28;20110;-78
2023/09/17 10:05:45;;;;;;;12.70;10.50;;;19.70;95.20;;;;;;4992258;28;20061;-78
2023/09/17 10:08:12;;;;;;;14.23;10.02;;;19.80;95.20;;;;;;4991999;28;20520;-78
2023/09/17 10:10:39;;;;;;;14.48;10.85;;;19.80;95.10;;;;;;4982804;28;20034;-76
2023/09/17 10:13:10;;;;;;;15.63;10.95;;;19.90;95.00;;;;;;4986016;28;20044;-77
2023/09/17 10:15:37;;;;;;;14.68;10.75;;;20.00;95.00;;;;;;4991794;28;20018;-77
2023/09/17 10:18:08;;;;;;;15.55;10.70;;;20.10;94.90;;;;;;4992044;28;20029;-78
2023/09/17 10:20:34;;;;;;;16.08;12.02;;;20.20;94.80;;;;;;4991844;28;20033;-78
2023/09/17 10:23:01;;;;;;;15.25;12.18;;;20.20;94.70;;;;;;4991717;28;20392;-79
2023/09/17 10:25:30;;;;;;;17.73;11.27;;;20.30;94.70;;;;;;4982960;28;20068;-79
2023/09/17 10:27:56;;;;;;;15.85;11.55;;;20.40;94.60;;;;;;4991562;28;20031;-77
2023/09/17 10:30:22;;;;;;;16.33;12.43;;;20.50;94.60;;;;;;4992269;28;20035;-77
2023/09/17 10:32:50;;;;;;;14.50;12.00;;;20.50;94.40;;;;;;4993294;28;20105;-77
2023/09/17 10:35:15;;;;;;;19.23;13.38;;;20.60;94.40;;;;;;4992909;28;20033;-78
2023/09/17 10:37:43;;;;;;;20.10;13.75;;;20.70;94.30;;;;;;4993303;28;20026;-77
2023/09/17 10:40:10;;;;;;;18.67;13.57;;;20.70;94.10;;;;;;4992908;28;20056;-78
2023/09/17 10:42:38;;;;;;;19.27;13.70;;;20.80;94.10;;;;;;4993016;28;20018;-77
2023/09/17 10:45:07;;;;;;;19.33;13.23;;;20.80;94.00;;;;;;4992993;28;20041;-77
2023/09/17 10:47:36;;;;;;;19.10;14.40;;;20.90;94.00;;;;;;4992695;28;20510;-77
2023/09/17 10:50:05;;;;;;;16.80;12.75;;;21.00;93.90;;;;;;4992620;28;20064;-81
2023/09/17 10:52:31;;;;;;;19.10;12.98;;;20.90;93.70;;;;;;4975558;28;20530;-82
2023/09/17 10:54:58;;;;;;;19.60;14.40;;;20.90;93.60;;;;;;4995085;28;20023;-82
2023/09/17 10:57:44;;;;;;;17.27;13.65;;;20.90;93.50;;;;;;4996605;28;20400;-82
2023/09/17 11:00:17;;;;;;;17.77;13.70;;;20.90;93.50;;;;;;4996256;28;20053;-83
2023/09/17 11:02:46;;;;;;;18.63;13.90;;;20.90;93.40;;;;;;4996308;28;20031;-82
2023/09/17 11:05:17;;;;;;;21.10;14.77;;;20.90;93.40;;;;;;4996657;28;20077;-82
2023/09/17 11:07:42;;;;;;;22.45;15.85;;;20.90;93.40;;;;;;4996013;28;20026;-82
2023/09/17 11:10:11;;;;;;;18.75;14.70;;;20.90;93.40;;;;;;4996215;28;20033;-82
2023/09/17 11:12:37;;;;;;;17.48;13.60;;;21.00;93.50;;;;;;4994726;28;20380;-83
2023/09/17 11:15:04;;;;;;;20.10;13.95;;;21.10;93.60;;;;;;4994588;28;20080;-82
2023/09/17 11:17:31;;;;;;;18.98;13.60;;;21.20;93.80;;;;;;4994123;28;20022;-82
2023/09/17 11:19:58;;;;;;;20.35;13.70;;;21.30;93.90;;;;;;4993270;28;20035;-81
2023/09/17 11:22:24;;;;;;;16.38;12.73;;;21.50;93.80;;;;;;4994891;28;20033;-81
2023/09/17 11:24:50;;;;;;;22.02;15.18;;;21.60;93.60;;;;;;4994489;28;20411;-81
2023/09/17 11:27:19;;;;;;;20.70;15.10;;;21.70;93.50;;;;;;4976548;28;20042;-82
2023/09/17 11:29:45;;;;;;;20.98;14.20;;;21.70;93.30;;;;;;4994070;28;20026;-82
2023/09/17 11:32:13;;;;;;;19.75;15.93;;;21.70;93.20;;;;;;4994039;28;20032;-81
2023/09/17 11:34:43;;;;;;;21.02;16.38;;;21.70;93.10;;;;;;4994624;28;20030;-77
2023/09/17 11:37:09;;;;;;;24.60;16.15;;;21.70;93.00;;;;;;4980201;28;20038;-78
2023/09/17 11:39:36;;;;;;;19.75;15.00;;;21.70;92.90;;;;;;4996179;28;20033;-78
2023/09/17 11:42:05;;;;;;;17.85;14.30;;;21.80;92.90;;;;;;4977975;28;20037;-78
2023/09/17 11:44:33;;;;;;;21.67;16.67;;;21.80;92.90;;;;;;4977841;28;20049;-79
2023/09/17 11:46:59;;;;;;;20.05;14.57;;;21.80;92.90;;;;;;4995285;28;20550;-78
2023/09/17 11:49:25;;;;;;;22.83;17.10;;;21.80;92.80;;;;;;4994953;28;20532;-78
2023/09/17 11:51:52;;;;;;;20.40;16.42;;;21.80;92.80;;;;;;4995577;28;20065;-79
2023/09/17 11:54:20;;;;;;;21.52;16.05;;;21.80;92.70;;;;;;4995287;28;20026;-79
2023/09/17 11:56:53;;;;;;;22.23;16.98;;;21.80;92.70;;;;;;4994080;28;20062;-78
2023/09/17 11:59:20;;;;;;;22.17;17.27;;;21.80;92.80;;;;;;4978144;28;20037;-78
2023/09/17 12:01:57;;;;;;;22.77;17.60;;;21.80;92.80;;;;;;4988736;28;20040;-79
2023/09/17 12:04:25;;;;;;;24.30;18.05;;;21.80;92.80;;;;;;4994708;28;20030;-78
2023/09/17 12:06:52;;;;;;;20.98;16.85;;;21.70;92.80;;;;;;4976568;28;20073;-78
2023/09/17 12:11:57;;;;;;;24.02;18.63;;;21.70;92.80;;;;;;4990688;28;20038;-77
2023/09/17 12:14:23;;;;;;;22.95;17.88;;;21.60;92.80;;;;;;4994435;28;20018;-78
2023/09/17 12:16:50;;;;;;;21.48;17.35;;;21.60;92.90;;;;;;4976996;28;20026;-78
2023/09/17 12:19:20;;;;;;;25.20;17.92;;;21.50;93.00;;;;;;4994273;28;20052;-79
2023/09/17 12:21:48;;;;;;;24.80;17.83;;;21.60;93.20;;;;;;4994874;28;20037;-79
2023/09/17 12:24:23;;;;;;;22.45;18.27;;;21.50;93.30;;;;;;4994334;28;20046;-79
2023/09/17 12:27:08;;;;;;;22.92;17.73;;;21.70;93.50;;;;;;4994442;28;20042;-79
2023/09/17 12:29:38;;;;;;;20.48;17.30;;;21.70;93.40;;;;;;4994614;28;20022;-79
2023/09/17 12:32:04;;;;;;;22.23;17.60;;;21.80;93.50;;;;;;4994184;28;20092;-79
2023/09/17 12:34:33;;;;;;;23.90;18.02;;;21.80;93.50;;;;;;4994163;28;20042;-78
2023/09/17 12:36:59;;;;;;;25.15;17.45;;;21.80;93.50;;;;;;4994012;28;20369;-78
2023/09/17 12:39:24;;;;;;;20.92;16.73;;;21.80;93.60;;;;;;4994161;28;20026;-78